sensor_id;sensor_type;location;lat;lon;timestamp;temperature;humidity
52415;DHT22;38340;52.964;6.086;2024-02-21T00:02:09;8.90;99.90
52415;DHT22;38340;52.964;6.086;2024-02-21T00:04:35;8.90;99.90
52415;DHT22;38340;52.964;6.086;2024-02-21T00:07:02;9.00;99.90
52415;DHT22;38340;52.964;6.086;2024-02-21T00:09:27;9.00;99.90
52415;DHT22;38340;52.964;6.086;2024-02-21T00:11:53;9.00;99.90
52415;DHT22;38340;52.964;6.086;2024-02-21T00:14:19;9.00;99.90
52415;DHT22;38340;52.964;6.086;2024-02-21T00:16:45;9.00;99.90
52415;DHT22;38340;52.964;6.086;2024-02-21T00:19:11;9.00;99.90
52415;DHT22;38340;52.964;6.086;2024-02-21T00:21:36;9.00;99.90
52415;DHT22;38340;52.964;6.086;2024-02-21T00:24:02;9.00;99.90
52415;DHT22;38340;52.964;6.086;2024-02-21T00:26:28;9.00;99.90
52415;DHT22;38340;52.964;6.086;2024-02-21T00:28:53;9.00;99.90
52415;DHT22;38340;52.964;6.086;2024-02-21T00:31:19;9.00;99.90
52415;DHT22;38340;52.964;6.086;2024-02-21T00:33:45;9.00;99.90
52415;DHT22;38340;52.964;6.086;2024-02-21T00:36:10;9.00;99.90
52415;DHT22;38340;52.964;6.086;2024-02-21T00:38:36;8.90;99.90
52415;DHT22;38340;52.964;6.086;2024-02-21T00:41:02;8.90;99.90
52415;DHT22;38340;52.964;6.086;2024-02-21T00:43:27;8.90;99.90
52415;DHT22;38340;52.964;6.086;2024-02-21T00:45:53;8.90;99.90
52415;DHT22;38340;52.964;6.086;2024-02-21T00:48:19;8.80;99.90
52415;DHT22;38340;52.964;6.086;2024-02-21T00:50:44;8.80;99.90
52415;DHT22;38340;52.964;6.086;2024-02-21T00:53:10;8.80;99.90
52415;DHT22;38340;52.964;6.086;2024-02-21T00:55:36;8.80;99.90
52415;DHT22;38340;52.964;6.086;2024-02-21T00:58:01;8.80;99.90
52415;DHT22;38340;52.964;6.086;2024-02-21T01:00:27;8.80;99.90
52415;DHT22;38340;52.964;6.086;2024-02-21T01:02:53;8.80;99.90
52415;DHT22;38340;52.964;6.086;2024-02-21T01:05:18;8.80;99.90
52415;DHT22;38340;52.964;6.086;2024-02-21T01:07:45;8.80;99.90
52415;DHT22;38340;52.964;6.086;2024-02-21T01:10:11;8.80;99.90
52415;DHT22;38340;52.964;6.086;2024-02-21T01:12:37;8.80;99.90
52415;DHT22;38340;52.964;6.086;2024-02-21T01:15:03;8.80;99.90
52415;DHT22;38340;52.964;6.086;2024-02-21T01:17:29;8.80;99.90
52415;DHT22;38340;52.964;6.086;2024-02-21T01:19:54;8.80;99.90
52415;DHT22;38340;52.964;6.086;2024-02-21T01:22:20;8.70;99.90
52415;DHT22;38340;52.964;6.086;2024-02-21T01:24:46;8.80;99.90
52415;DHT22;38340;52.964;6.086;2024-02-21T01:27:12;8.80;99.90
52415;DHT22;38340;52.964;6.086;2024-02-21T01:29:37;8.80;99.90
52415;DHT22;38340;52.964;6.086;2024-02-21T01:32:03;8.80;99.90
52415;DHT22;38340;52.964;6.086;2024-02-21T01:34:29;8.80;99.90
52415;DHT22;38340;52.964;6.086;2024-02-21T01:36:55;8.80;99.90
52415;DHT22;38340;52.964;6.086;2024-02-21T01:39:20;8.80;99.90
52415;DHT22;38340;52.964;6.086;2024-02-21T01:41:46;8.80;99.90
52415;DHT22;38340;52.964;6.086;2024-02-21T01:44:11;8.80;99.90
52415;DHT22;38340;52.964;6.086;2024-02-21T01:46:37;8.80;99.90
52415;DHT22;38340;52.964;6.086;2024-02-21T01:49:03;8.80;99.90
52415;DHT22;38340;52.964;6.086;2024-02-21T01:51:30;8.80;99.90
52415;DHT22;38340;52.964;6.086;2024-02-21T01:53:57;8.80;99.90
52415;DHT22;38340;52.964;6.086;2024-02-21T01:56:24;8.80;99.90
52415;DHT22;38340;52.964;6.086;2024-02-21T01:58:51;8.80;99.90
52415;DHT22;38340;52.964;6.086;2024-02-21T02:01:17;8.80;99.90
52415;DHT22;38340;52.964;6.086;2024-02-21T02:03:44;8.80;99.90
52415;DHT22;38340;52.964;6.086;2024-02-21T02:06:10;8.80;99.90
52415;DHT22;38340;52.964;6.086;2024-02-21T02:08:36;8.80;99.90
52415;DHT22;38340;52.964;6.086;2024-02-21T02:11:02;8.80;99.90
52415;DHT22;38340;52.964;6.086;2024-02-21T02:13:28;8.80;99.90
52415;DHT22;38340;52.964;6.086;2024-02-21T02:15:54;8.80;99.90
52415;DHT22;38340;52.964;6.086;2024-02-21T02:18:20;8.80;99.90
52415;DHT22;38340;52.964;6.086;2024-02-21T02:20:46;8.80;99.90
52415;DHT22;38340;52.964;6.086;2024-02-21T02:23:31;8.80;99.90
52415;DHT22;38340;52.964;6.086;2024-02-21T02:25:57;8.80;99.90
52415;DHT22;38340;52.964;6.086;2024-02-21T02:28:24;8.80;99.90
52415;DHT22;38340;52.964;6.086;2024-02-21T02:30:50;8.80;99.90
52415;DHT22;38340;52.964;6.086;2024-02-21T02:33:16;8.80;99.90
52415;DHT22;38340;52.964;6.086;2024-02-21T02:35:45;8.70;99.90
52415;DHT22;38340;52.964;6.086;2024-02-21T02:38:11;8.80;99.90
52415;DHT22;38340;52.964;6.086;2024-02-21T02:40:41;8.70;99.90
52415;DHT22;38340;52.964;6.086;2024-02-21T02:43:07;8.70;99.90
52415;DHT22;38340;52.964;6.086;2024-02-21T02:45:33;8.70;99.90
52415;DHT22;38340;52.964;6.086;2024-02-21T02:47:59;8.70;99.90
52415;DHT22;38340;52.964;6.086;2024-02-21T02:50:26;8.70;99.90
52415;DHT22;38340;52.964;6.086;2024-02-21T02:52:52;8.70;99.90
52415;DHT22;38340;52.964;6.086;2024-02-21T02:55:18;8.80;99.90
52415;DHT22;38340;52.964;6.086;2024-02-21T02:57:44;8.70;99.90
52415;DHT22;38340;52.964;6.086;2024-02-21T03:00:11;8.70;99.90
52415;DHT22;38340;52.964;6.086;2024-02-21T03:02:38;8.80;99.90
52415;DHT22;38340;52.964;6.086;2024-02-21T03:05:19;8.80;99.90
52415;DHT22;38340;52.964;6.086;2024-02-21T03:07:45;8.80;99.90
52415;DHT22;38340;52.964;6.086;2024-02-21T03:10:11;8.80;99.90
52415;DHT22;38340;52.964;6.086;2024-02-21T03:12:37;8.80;99.90
52415;DHT22;38340;52.964;6.086;2024-02-21T03:15:04;8.80;99.90
52415;DHT22;38340;52.964;6.086;2024-02-21T03:17:30;8.80;99.90
52415;DHT22;38340;52.964;6.086;2024-02-21T03:19:56;8.80;99.90
52415;DHT22;38340;52.964;6.086;2024-02-21T03:22:24;8.80;99.90
52415;DHT22;38340;52.964;6.086;2024-02-21T03:24:50;8.80;99.90
52415;DHT22;38340;52.964;6.086;2024-02-21T03:27:15;8.80;99.90
52415;DHT22;38340;52.964;6.086;2024-02-21T03:29:42;8.80;99.90
52415;DHT22;38340;52.964;6.086;2024-02-21T03:32:08;8.80;99.90
52415;DHT22;38340;52.964;6.086;2024-02-21T03:34:33;8.80;99.90
52415;DHT22;38340;52.964;6.086;2024-02-21T03:36:59;8.80;99.90
52415;DHT22;38340;52.964;6.086;2024-02-21T03:39:25;8.80;99.90
52415;DHT22;38340;52.964;6.086;2024-02-21T03:41:51;8.80;99.90
52415;DHT22;38340;52.964;6.086;2024-02-21T03:44:17;8.80;99.90
52415;DHT22;38340;52.964;6.086;2024-02-21T03:46:42;8.90;99.90
52415;DHT22;38340;52.964;6.086;2024-02-21T03:49:08;8.80;99.90
52415;DHT22;38340;52.964;6.086;2024-02-21T03:51:34;8.80;99.90
52415;DHT22;38340;52.964;6.086;2024-02-21T03:53:59;8.80;99.90
52415;DHT22;38340;52.964;6.086;2024-02-21T03:56:25;8.80;99.90
52415;DHT22;38340;52.964;6.086;2024-02-21T03:58:51;8.80;99.90
52415;DHT22;38340;52.964;6.086;2024-02-21T04:01:16;8.80;99.90
52415;DHT22;38340;52.964;6.086;2024-02-21T04:03:43;8.80;99.90
52415;DHT22;38340;52.964;6.086;2024-02-21T04:06:09;8.80;99.90
52415;DHT22;38340;52.964;6.086;2024-02-21T04:08:35;8.80;99.90
52415;DHT22;38340;52.964;6.086;2024-02-21T04:11:01;8.80;99.90
52415;DHT22;38340;52.964;6.086;2024-02-21T04:13:26;8.80;99.90
52415;DHT22;38340;52.964;6.086;2024-02-21T04:15:52;8.80;99.90
52415;DHT22;38340;52.964;6.086;2024-02-21T04:18:18;8.80;99.90
52415;DHT22;38340;52.964;6.086;2024-02-21T04:20:43;8.80;99.90
52415;DHT22;38340;52.964;6.086;2024-02-21T04:23:09;8.80;99.90
52415;DHT22;38340;52.964;6.086;2024-02-21T04:25:35;8.80;99.90
52415;DHT22;38340;52.964;6.086;2024-02-21T04:28:01;8.80;99.90
52415;DHT22;38340;52.964;6.086;2024-02-21T04:30:27;8.90;99.90
52415;DHT22;38340;52.964;6.086;2024-02-21T04:32:52;8.90;99.90
52415;DHT22;38340;52.964;6.086;2024-02-21T04:35:18;8.90;99.90
52415;DHT22;38340;52.964;6.086;2024-02-21T04:37:44;8.90;99.90
52415;DHT22;38340;52.964;6.086;2024-02-21T04:40:10;8.80;99.90
52415;DHT22;38340;52.964;6.086;2024-02-21T04:42:36;8.90;99.90
52415;DHT22;38340;52.964;6.086;2024-02-21T04:45:02;8.80;99.90
52415;DHT22;38340;52.964;6.086;2024-02-21T04:47:28;8.80;99.90
52415;DHT22;38340;52.964;6.086;2024-02-21T04:49:54;8.80;99.90
52415;DHT22;38340;52.964;6.086;2024-02-21T04:52:19;8.80;99.90
52415;DHT22;38340;52.964;6.086;2024-02-21T04:54:45;8.70;99.90
52415;DHT22;38340;52.964;6.086;2024-02-21T04:57:11;8.80;99.90
52415;DHT22;38340;52.964;6.086;2024-02-21T04:59:36;8.80;99.90
52415;DHT22;38340;52.964;6.086;2024-02-21T05:02:02;8.80;99.90
52415;DHT22;38340;52.964;6.086;2024-02-21T05:04:28;8.80;99.90
52415;DHT22;38340;52.964;6.086;2024-02-21T05:06:54;8.80;99.90
52415;DHT22;38340;52.964;6.086;2024-02-21T05:09:20;8.80;99.90
52415;DHT22;38340;52.964;6.086;2024-02-21T05:11:46;8.70;99.90
52415;DHT22;38340;52.964;6.086;2024-02-21T05:14:12;8.80;99.90
52415;DHT22;38340;52.964;6.086;2024-02-21T05:16:38;8.70;99.90
52415;DHT22;38340;52.964;6.086;2024-02-21T05:19:05;8.80;99.90
52415;DHT22;38340;52.964;6.086;2024-02-21T05:21:30;8.80;99.90
52415;DHT22;38340;52.964;6.086;2024-02-21T05:23:56;8.80;99.90
52415;DHT22;38340;52.964;6.086;2024-02-21T05:26:24;8.70;99.90
52415;DHT22;38340;52.964;6.086;2024-02-21T05:28:50;8.70;99.90
52415;DHT22;38340;52.964;6.086;2024-02-21T05:31:17;8.70;99.90
52415;DHT22;38340;52.964;6.086;2024-02-21T05:33:44;8.80;99.90
52415;DHT22;38340;52.964;6.086;2024-02-21T05:36:10;8.80;99.90
52415;DHT22;38340;52.964;6.086;2024-02-21T05:38:36;8.80;99.90
52415;DHT22;38340;52.964;6.086;2024-02-21T05:41:02;8.80;99.90
52415;DHT22;38340;52.964;6.086;2024-02-21T05:43:28;8.80;99.90
52415;DHT22;38340;52.964;6.086;2024-02-21T05:45:54;8.80;99.90
52415;DHT22;38340;52.964;6.086;2024-02-21T05:48:21;8.80;99.90
52415;DHT22;38340;52.964;6.086;2024-02-21T05:50:47;8.80;99.90
52415;DHT22;38340;52.964;6.086;2024-02-21T05:53:13;8.80;99.90
52415;DHT22;38340;52.964;6.086;2024-02-21T05:55:39;8.70;99.90
52415;DHT22;38340;52.964;6.086;2024-02-21T05:58:04;8.80;99.90
52415;DHT22;38340;52.964;6.086;2024-02-21T06:00:31;8.70;99.90
52415;DHT22;38340;52.964;6.086;2024-02-21T06:02:57;8.70;99.90
52415;DHT22;38340;52.964;6.086;2024-02-21T06:05:23;8.70;99.90
52415;DHT22;38340;52.964;6.086;2024-02-21T06:07:49;8.80;99.90
52415;DHT22;38340;52.964;6.086;2024-02-21T06:10:15;8.80;99.90
52415;DHT22;38340;52.964;6.086;2024-02-21T06:12:40;8.80;99.90
52415;DHT22;38340;52.964;6.086;2024-02-21T06:15:07;8.80;99.90
52415;DHT22;38340;52.964;6.086;2024-02-21T06:17:33;8.80;99.90
52415;DHT22;38340;52.964;6.086;2024-02-21T06:19:58;8.80;99.90
52415;DHT22;38340;52.964;6.086;2024-02-21T06:22:24;8.80;99.90
52415;DHT22;38340;52.964;6.086;2024-02-21T06:24:49;8.80;99.90
52415;DHT22;38340;52.964;6.086;2024-02-21T06:27:16;8.80;99.90
52415;DHT22;38340;52.964;6.086;2024-02-21T06:29:42;8.80;99.90
52415;DHT22;38340;52.964;6.086;2024-02-21T06:32:08;8.80;99.90
52415;DHT22;38340;52.964;6.086;2024-02-21T06:34:34;8.80;99.90
52415;DHT22;38340;52.964;6.086;2024-02-21T06:36:59;8.90;99.90
52415;DHT22;38340;52.964;6.086;2024-02-21T06:39:25;8.90;99.90
52415;DHT22;38340;52.964;6.086;2024-02-21T06:41:51;8.90;99.90
52415;DHT22;38340;52.964;6.086;2024-02-21T06:44:19;8.80;99.90
52415;DHT22;38340;52.964;6.086;2024-02-21T06:46:45;8.90;99.90
52415;DHT22;38340;52.964;6.086;2024-02-21T06:49:11;8.90;99.90
52415;DHT22;38340;52.964;6.086;2024-02-21T06:51:44;8.90;99.90
52415;DHT22;38340;52.964;6.086;2024-02-21T06:54:10;8.90;99.90
52415;DHT22;38340;52.964;6.086;2024-02-21T06:56:37;8.90;99.90
52415;DHT22;38340;52.964;6.086;2024-02-21T06:59:03;8.90;99.90
52415;DHT22;38340;52.964;6.086;2024-02-21T07:01:29;8.80;99.90
52415;DHT22;38340;52.964;6.086;2024-02-21T07:03:55;8.80;99.90
52415;DHT22;38340;52.964;6.086;2024-02-21T07:06:21;8.80;99.90
52415;DHT22;38340;52.964;6.086;2024-02-21T07:08:46;8.80;99.90
52415;DHT22;38340;52.964;6.086;2024-02-21T07:11:12;8.80;99.90
52415;DHT22;38340;52.964;6.086;2024-02-21T07:13:38;8.80;99.90
52415;DHT22;38340;52.964;6.086;2024-02-21T07:16:04;8.80;99.90
52415;DHT22;38340;52.964;6.086;2024-02-21T07:18:29;8.80;99.90
52415;DHT22;38340;52.964;6.086;2024-02-21T07:20:55;8.80;99.90
52415;DHT22;38340;52.964;6.086;2024-02-21T07:23:22;8.80;99.90
52415;DHT22;38340;52.964;6.086;2024-02-21T07:25:47;8.80;99.90
52415;DHT22;38340;52.964;6.086;2024-02-21T07:28:13;8.80;99.90
52415;DHT22;38340;52.964;6.086;2024-02-21T07:30:39;8.80;99.90
52415;DHT22;38340;52.964;6.086;2024-02-21T07:33:05;8.80;99.90
52415;DHT22;38340;52.964;6.086;2024-02-21T07:35:32;8.80;99.90
52415;DHT22;38340;52.964;6.086;2024-02-21T07:37:58;8.90;99.90
52415;DHT22;38340;52.964;6.086;2024-02-21T07:40:24;8.80;99.90
52415;DHT22;38340;52.964;6.086;2024-02-21T07:42:49;8.80;99.90
52415;DHT22;38340;52.964;6.086;2024-02-21T07:45:15;8.90;99.90
52415;DHT22;38340;52.964;6.086;2024-02-21T07:47:41;8.90;99.90
52415;DHT22;38340;52.964;6.086;2024-02-21T07:50:07;8.90;99.90
52415;DHT22;38340;52.964;6.086;2024-02-21T07:52:33;8.90;99.90
52415;DHT22;38340;52.964;6.086;2024-02-21T07:54:59;8.90;99.90
52415;DHT22;38340;52.964;6.086;2024-02-21T07:57:25;8.90;99.90
52415;DHT22;38340;52.964;6.086;2024-02-21T07:59:50;8.90;99.90
52415;DHT22;38340;52.964;6.086;2024-02-21T08:02:16;8.90;99.90
52415;DHT22;38340;52.964;6.086;2024-02-21T08:04:42;8.90;99.90
52415;DHT22;38340;52.964;6.086;2024-02-21T08:07:08;8.80;99.90
52415;DHT22;38340;52.964;6.086;2024-02-21T08:09:34;8.90;99.90
52415;DHT22;38340;52.964;6.086;2024-02-21T08:12:01;8.80;99.90
52415;DHT22;38340;52.964;6.086;2024-02-21T08:14:27;8.80;99.90
52415;DHT22;38340;52.964;6.086;2024-02-21T08:16:53;8.90;99.90
52415;DHT22;38340;52.964;6.086;2024-02-21T08:19:20;8.80;99.90
52415;DHT22;38340;52.964;6.086;2024-02-21T08:21:46;8.80;99.90
52415;DHT22;38340;52.964;6.086;2024-02-21T08:24:16;8.80;99.90
52415;DHT22;38340;52.964;6.086;2024-02-21T08:26:42;8.80;99.90
52415;DHT22;38340;52.964;6.086;2024-02-21T08:29:10;8.80;99.90
52415;DHT22;38340;52.964;6.086;2024-02-21T08:31:36;8.80;99.90
52415;DHT22;38340;52.964;6.086;2024-02-21T08:34:02;8.90;99.90
52415;DHT22;38340;52.964;6.086;2024-02-21T08:36:32;8.90;99.90
52415;DHT22;38340;52.964;6.086;2024-02-21T08:38:58;8.80;99.90
52415;DHT22;38340;52.964;6.086;2024-02-21T08:41:25;8.90;99.90
52415;DHT22;38340;52.964;6.086;2024-02-21T08:43:51;8.90;99.90
52415;DHT22;38340;52.964;6.086;2024-02-21T08:46:17;8.90;99.90
52415;DHT22;38340;52.964;6.086;2024-02-21T08:48:43;8.90;99.90
52415;DHT22;38340;52.964;6.086;2024-02-21T08:51:14;8.90;99.90
52415;DHT22;38340;52.964;6.086;2024-02-21T08:53:40;8.90;99.90
52415;DHT22;38340;52.964;6.086;2024-02-21T08:56:06;8.90;99.90
52415;DHT22;38340;52.964;6.086;2024-02-21T08:58:36;8.90;99.90
52415;DHT22;38340;52.964;6.086;2024-02-21T09:01:08;8.90;99.90
52415;DHT22;38340;52.964;6.086;2024-02-21T09:03:38;9.00;99.90
52415;DHT22;38340;52.964;6.086;2024-02-21T09:06:07;9.00;99.90
52415;DHT22;38340;52.964;6.086;2024-02-21T09:08:33;9.00;99.90
52415;DHT22;38340;52.964;6.086;2024-02-21T09:11:02;9.00;99.90
52415;DHT22;38340;52.964;6.086;2024-02-21T09:13:28;9.00;99.90
52415;DHT22;38340;52.964;6.086;2024-02-21T09:15:55;8.90;99.90
52415;DHT22;38340;52.964;6.086;2024-02-21T09:18:21;9.00;99.90
52415;DHT22;38340;52.964;6.086;2024-02-21T09:20:46;9.00;99.90
52415;DHT22;38340;52.964;6.086;2024-02-21T09:23:13;9.00;99.90
52415;DHT22;38340;52.964;6.086;2024-02-21T09:25:39;9.00;99.90
52415;DHT22;38340;52.964;6.086;2024-02-21T09:28:05;9.10;99.90
52415;DHT22;38340;52.964;6.086;2024-02-21T09:30:35;9.10;99.90
52415;DHT22;38340;52.964;6.086;2024-02-21T09:33:01;9.10;99.90
52415;DHT22;38340;52.964;6.086;2024-02-21T09:35:28;9.10;99.90
52415;DHT22;38340;52.964;6.086;2024-02-21T09:37:54;9.20;99.90
52415;DHT22;38340;52.964;6.086;2024-02-21T09:40:20;9.20;99.90
52415;DHT22;38340;52.964;6.086;2024-02-21T09:42:47;9.20;99.90
52415;DHT22;38340;52.964;6.086;2024-02-21T09:45:24;9.20;99.90
52415;DHT22;38340;52.964;6.086;2024-02-21T09:50:40;9.20;99.90
52415;DHT22;38340;52.964;6.086;2024-02-21T09:53:11;9.20;99.90
52415;DHT22;38340;52.964;6.086;2024-02-21T09:55:38;9.20;99.90
52415;DHT22;38340;52.964;6.086;2024-02-21T09:58:06;9.20;99.90
52415;DHT22;38340;52.964;6.086;2024-02-21T10:00:32;9.20;99.90
52415;DHT22;38340;52.964;6.086;2024-02-21T10:02:59;9.20;99.90
52415;DHT22;38340;52.964;6.086;2024-02-21T10:05:24;9.20;99.90
52415;DHT22;38340;52.964;6.086;2024-02-21T10:07:51;9.20;99.90
52415;DHT22;38340;52.964;6.086;2024-02-21T10:10:17;9.20;99.90
52415;DHT22;38340;52.964;6.086;2024-02-21T10:12:53;9.20;99.90
52415;DHT22;38340;52.964;6.086;2024-02-21T10:15:24;9.20;99.90
52415;DHT22;38340;52.964;6.086;2024-02-21T10:18:01;9.20;99.90
52415;DHT22;38340;52.964;6.086;2024-02-21T10:20:29;9.30;99.90
52415;DHT22;38340;52.964;6.086;2024-02-21T10:23:04;9.30;99.90
52415;DHT22;38340;52.964;6.086;2024-02-21T10:25:36;9.40;99.90
52415;DHT22;38340;52.964;6.086;2024-02-21T10:28:12;9.50;99.90
52415;DHT22;38340;52.964;6.086;2024-02-21T10:30:38;9.50;99.90
52415;DHT22;38340;52.964;6.086;2024-02-21T10:33:05;9.60;99.90
52415;DHT22;38340;52.964;6.086;2024-02-21T10:35:32;9.60;99.90
52415;DHT22;38340;52.964;6.086;2024-02-21T10:37:59;9.70;99.90
52415;DHT22;38340;52.964;6.086;2024-02-21T10:40:28;9.70;99.90
52415;DHT22;38340;52.964;6.086;2024-02-21T10:42:57;9.70;99.90
52415;DHT22;38340;52.964;6.086;2024-02-21T10:45:44;9.80;99.90
52415;DHT22;38340;52.964;6.086;2024-02-21T10:48:12;9.80;99.90
52415;DHT22;38340;52.964;6.086;2024-02-21T10:50:56;9.80;99.90
52415;DHT22;38340;52.964;6.086;2024-02-21T10:56:01;9.80;99.90
52415;DHT22;38340;52.964;6.086;2024-02-21T10:58:30;9.70;99.90
52415;DHT22;38340;52.964;6.086;2024-02-21T11:00:57;9.70;99.90
52415;DHT22;38340;52.964;6.086;2024-02-21T11:03:23;9.60;99.90
52415;DHT22;38340;52.964;6.086;2024-02-21T11:05:49;9.60;99.90
52415;DHT22;38340;52.964;6.086;2024-02-21T11:08:15;9.70;99.90
52415;DHT22;38340;52.964;6.086;2024-02-21T11:10:46;9.70;99.90
52415;DHT22;38340;52.964;6.086;2024-02-21T11:13:11;9.60;99.90
52415;DHT22;38340;52.964;6.086;2024-02-21T11:15:39;9.70;99.90
52415;DHT22;38340;52.964;6.086;2024-02-21T11:18:04;9.60;99.90
52415;DHT22;38340;52.964;6.086;2024-02-21T11:20:37;9.50;99.90
52415;DHT22;38340;52.964;6.086;2024-02-21T11:23:03;9.50;99.90
52415;DHT22;38340;52.964;6.086;2024-02-21T11:25:29;9.60;99.90
52415;DHT22;38340;52.964;6.086;2024-02-21T11:28:02;9.60;99.90
52415;DHT22;38340;52.964;6.086;2024-02-21T11:30:30;9.60;99.90
52415;DHT22;38340;52.964;6.086;2024-02-21T11:33:03;9.60;99.90
52415;DHT22;38340;52.964;6.086;2024-02-21T11:35:34;9.60;99.90
52415;DHT22;38340;52.964;6.086;2024-02-21T11:38:10;9.60;99.90
52415;DHT22;38340;52.964;6.086;2024-02-21T11:40:38;9.60;99.90
52415;DHT22;38340;52.964;6.086;2024-02-21T11:43:05;9.60;99.90
52415;DHT22;38340;52.964;6.086;2024-02-21T11:45:31;9.70;99.90
52415;DHT22;38340;52.964;6.086;2024-02-21T11:47:58;9.70;99.90
52415;DHT22;38340;52.964;6.086;2024-02-21T11:50:26;9.60;99.90
52415;DHT22;38340;52.964;6.086;2024-02-21T11:52:54;9.60;99.90
52415;DHT22;38340;52.964;6.086;2024-02-21T11:55:21;9.60;99.90
52415;DHT22;38340;52.964;6.086;2024-02-21T11:57:50;9.60;99.90
52415;DHT22;38340;52.964;6.086;2024-02-21T12:00:20;9.70;99.90
52415;DHT22;38340;52.964;6.086;2024-02-21T12:02:46;9.70;99.90
52415;DHT22;38340;52.964;6.086;2024-02-21T12:05:12;9.60;99.90
52415;DHT22;38340;52.964;6.086;2024-02-21T12:07:38;9.60;99.90
52415;DHT22;38340;52.964;6.086;2024-02-21T12:10:08;9.60;99.90
52415;DHT22;38340;52.964;6.086;2024-02-21T12:12:35;9.70;99.90
52415;DHT22;38340;52.964;6.086;2024-02-21T12:15:03;9.80;99.90
52415;DHT22;38340;52.964;6.086;2024-02-21T12:17:32;9.70;99.90
52415;DHT22;38340;52.964;6.086;2024-02-21T12:19:59;9.70;99.90
52415;DHT22;38340;52.964;6.086;2024-02-21T12:22:25;9.70;99.90
52415;DHT22;38340;52.964;6.086;2024-02-21T12:24:51;9.70;99.90
52415;DHT22;38340;52.964;6.086;2024-02-21T12:27:16;9.70;99.90
52415;DHT22;38340;52.964;6.086;2024-02-21T12:29:42;9.70;99.90
52415;DHT22;38340;52.964;6.086;2024-02-21T12:32:08;9.70;99.90
52415;DHT22;38340;52.964;6.086;2024-02-21T12:34:33;9.70;99.90
52415;DHT22;38340;52.964;6.086;2024-02-21T12:36:59;9.60;99.90
52415;DHT22;38340;52.964;6.086;2024-02-21T12:39:25;9.60;99.90
52415;DHT22;38340;52.964;6.086;2024-02-21T12:41:54;9.60;99.90
52415;DHT22;38340;52.964;6.086;2024-02-21T12:44:21;9.70;99.90
52415;DHT22;38340;52.964;6.086;2024-02-21T12:46:47;9.70;99.90
52415;DHT22;38340;52.964;6.086;2024-02-21T12:49:18;9.70;99.90
52415;DHT22;38340;52.964;6.086;2024-02-21T12:51:44;9.80;99.90
52415;DHT22;38340;52.964;6.086;2024-02-21T12:54:12;9.80;99.90
52415;DHT22;38340;52.964;6.086;2024-02-21T12:56:38;9.90;99.90
52415;DHT22;38340;52.964;6.086;2024-02-21T12:59:05;9.90;99.90
52415;DHT22;38340;52.964;6.086;2024-02-21T13:01:35;9.90;99.90
52415;DHT22;38340;52.964;6.086;2024-02-21T13:04:01;10.00;99.90
52415;DHT22;38340;52.964;6.086;2024-02-21T13:06:27;9.90;99.90
52415;DHT22;38340;52.964;6.086;2024-02-21T13:08:53;10.00;99.90
52415;DHT22;38340;52.964;6.086;2024-02-21T13:11:19;10.00;99.90
52415;DHT22;38340;52.964;6.086;2024-02-21T13:13:45;10.10;99.90
52415;DHT22;38340;52.964;6.086;2024-02-21T13:16:10;10.00;99.90
52415;DHT22;38340;52.964;6.086;2024-02-21T13:18:36;10.10;99.90
52415;DHT22;38340;52.964;6.086;2024-02-21T13:21:04;10.10;99.90
52415;DHT22;38340;52.964;6.086;2024-02-21T13:23:30;10.10;99.90
52415;DHT22;38340;52.964;6.086;2024-02-21T13:25:55;10.00;99.90
52415;DHT22;38340;52.964;6.086;2024-02-21T13:28:21;10.00;99.90
52415;DHT22;38340;52.964;6.086;2024-02-21T13:30:47;10.10;99.90
52415;DHT22;38340;52.964;6.086;2024-02-21T13:33:13;10.00;99.90
52415;DHT22;38340;52.964;6.086;2024-02-21T13:35:39;10.10;99.90
52415;DHT22;38340;52.964;6.086;2024-02-21T13:38:05;10.00;99.90
52415;DHT22;38340;52.964;6.086;2024-02-21T13:40:31;9.90;99.90
52415;DHT22;38340;52.964;6.086;2024-02-21T13:42:56;9.90;99.90
52415;DHT22;38340;52.964;6.086;2024-02-21T13:45:22;10.00;99.90
52415;DHT22;38340;52.964;6.086;2024-02-21T13:47:48;9.90;99.90
52415;DHT22;38340;52.964;6.086;2024-02-21T13:50:14;9.90;99.90
52415;DHT22;38340;52.964;6.086;2024-02-21T13:52:43;9.90;99.90
52415;DHT22;38340;52.964;6.086;2024-02-21T13:55:09;9.80;99.90
52415;DHT22;38340;52.964;6.086;2024-02-21T13:57:35;9.80;99.90
52415;DHT22;38340;52.964;6.086;2024-02-21T14:00:02;9.70;99.90
52415;DHT22;38340;52.964;6.086;2024-02-21T14:02:28;9.70;99.90
52415;DHT22;38340;52.964;6.086;2024-02-21T14:04:54;9.60;99.90
52415;DHT22;38340;52.964;6.086;2024-02-21T14:07:20;9.60;99.90
52415;DHT22;38340;52.964;6.086;2024-02-21T14:09:46;9.60;99.90
52415;DHT22;38340;52.964;6.086;2024-02-21T14:12:11;9.60;99.90
52415;DHT22;38340;52.964;6.086;2024-02-21T14:14:37;9.50;99.90
52415;DHT22;38340;52.964;6.086;2024-02-21T14:17:03;9.60;99.90
52415;DHT22;38340;52.964;6.086;2024-02-21T14:19:30;9.60;99.90
52415;DHT22;38340;52.964;6.086;2024-02-21T14:21:55;9.60;99.90
52415;DHT22;38340;52.964;6.086;2024-02-21T14:24:22;9.60;99.90
52415;DHT22;38340;52.964;6.086;2024-02-21T14:26:48;9.60;99.90
52415;DHT22;38340;52.964;6.086;2024-02-21T14:29:14;9.60;99.90
52415;DHT22;38340;52.964;6.086;2024-02-21T14:31:40;9.60;99.90
52415;DHT22;38340;52.964;6.086;2024-02-21T14:34:05;9.60;99.90
52415;DHT22;38340;52.964;6.086;2024-02-21T14:36:33;9.60;99.90
52415;DHT22;38340;52.964;6.086;2024-02-21T14:39:00;9.50;99.90
52415;DHT22;38340;52.964;6.086;2024-02-21T14:41:26;9.50;99.90
52415;DHT22;38340;52.964;6.086;2024-02-21T14:43:53;9.50;99.90
52415;DHT22;38340;52.964;6.086;2024-02-21T14:46:18;9.50;99.90
52415;DHT22;38340;52.964;6.086;2024-02-21T14:48:44;9.50;99.90
52415;DHT22;38340;52.964;6.086;2024-02-21T14:51:11;9.50;99.90
52415;DHT22;38340;52.964;6.086;2024-02-21T14:53:36;9.50;99.90
52415;DHT22;38340;52.964;6.086;2024-02-21T14:56:02;9.50;99.90
52415;DHT22;38340;52.964;6.086;2024-02-21T14:58:28;9.50;99.90
52415;DHT22;38340;52.964;6.086;2024-02-21T15:00:54;9.50;99.90
52415;DHT22;38340;52.964;6.086;2024-02-21T15:03:19;9.50;99.90
52415;DHT22;38340;52.964;6.086;2024-02-21T15:05:46;9.50;99.90
52415;DHT22;38340;52.964;6.086;2024-02-21T15:08:12;9.50;99.90
52415;DHT22;38340;52.964;6.086;2024-02-21T15:10:40;9.50;99.90
52415;DHT22;38340;52.964;6.086;2024-02-21T15:13:07;9.40;99.90
52415;DHT22;38340;52.964;6.086;2024-02-21T15:15:33;9.40;99.90
52415;DHT22;38340;52.964;6.086;2024-02-21T15:17:58;9.40;99.90
52415;DHT22;38340;52.964;6.086;2024-02-21T15:20:24;9.50;99.90
52415;DHT22;38340;52.964;6.086;2024-02-21T15:22:50;9.50;99.90
52415;DHT22;38340;52.964;6.086;2024-02-21T15:25:15;9.50;99.90
52415;DHT22;38340;52.964;6.086;2024-02-21T15:27:43;9.50;99.90
52415;DHT22;38340;52.964;6.086;2024-02-21T15:30:10;9.50;99.90
52415;DHT22;38340;52.964;6.086;2024-02-21T15:32:36;9.50;99.90
52415;DHT22;38340;52.964;6.086;2024-02-21T15:35:05;9.50;99.90
52415;DHT22;38340;52.964;6.086;2024-02-21T15:37:32;9.50;99.90
52415;DHT22;38340;52.964;6.086;2024-02-21T15:39:58;9.50;99.90
52415;DHT22;38340;52.964;6.086;2024-02-21T15:42:24;9.50;99.90
52415;DHT22;38340;52.964;6.086;2024-02-21T15:44:50;9.40;99.90
52415;DHT22;38340;52.964;6.086;2024-02-21T15:47:15;9.50;99.90